• Join FlightAware (Why Join?)
  • Login
  • US Flag 
11:44PM EDT


 

Airport Tracker/Info


-or-


 

Live Flight TrackerFlight Track Log ✈ SWA2003 ✈ 13-Oct-2013 ✈ KPIT - KMDW

Flight Track Log - Related Links

Times and Time Zones

All times are in EDT time to prevent confusion due to time zone crossing. See the SWA2003 flight status page for this flight to view local times or setup timezone preferences in your user account.

Time Position Orientation Groundspeed Altitude Reporting Facility
EDT Latitude Longitude Course Direction KTS MPH feet Rate Location/Type
09:06AM 40.5403 -80.1764 288° West 228 262 6,400  Level Cleveland Center
09:07AM 40.5903 -80.2533 311° West 264 304 8,800 2,700 Climbing Cleveland Center
09:08AM 40.6258 -80.3564 294° West 319 367 12,000 3,180 Climbing Cleveland Center
09:09AM 40.6408 -80.4842 279° West 349 402 15,400 3,360 Climbing Cleveland Center
09:10AM 40.6455 -80.9852 292° West  Level Estimated
09:10AM 40.6561 -80.6175 279° West 363 418 18,900  Level Cleveland Center
09:11AM 40.6697 -81.1055 288° West  Level Estimated
09:11AM 40.6719 -80.7747 278° West 383 441 22,200  Level Cleveland Center
09:12AM 40.6942 -80.9197 281° West 404 465 24,600 2,220 Climbing Cleveland Center
09:13AM 40.7206 -81.0569 284° West 417 480 26,800 2,520 Climbing Cleveland Center
09:14AM 40.7481 -81.2128 283° West 429 494 29,800 1,800 Climbing Cleveland Center
09:15AM 40.7806 -81.3903 284° West 422 486 30,600 1,020 Climbing Cleveland Center
09:16AM 40.8089 -81.5431 284° West 423 487 32,000 660 Climbing Cleveland Center
09:17AM 40.8361 -81.6956 283° West 422 486 32,000  Level Cleveland Center
09:18AM 40.8636 -81.8467 284° West 418 481 32,000  Level Cleveland Center
09:19AM 40.8900 -81.9972 283° West 415 478 32,000  Level Cleveland Center
09:20AM 40.9161 -82.1481 283° West 415 478 32,000  Level Cleveland Center
09:21AM 40.9419 -82.2981 283° West 415 478 32,000  Level Cleveland Center
09:22AM 40.9686 -82.4506 283° West 418 481 32,000  Level Cleveland Center
09:23AM 40.9944 -82.6014 283° West 417 480 32,000  Level Cleveland Center
09:24AM 41.0208 -82.7522 283° West 416 479 32,000  Level Cleveland Center
09:25AM 41.0464 -82.9047 283° West 419 482 32,000  Level Cleveland Center
09:26AM 41.0725 -83.0572 283° West 421 484 32,000  Level Cleveland Center
09:27AM 41.0967 -83.2006 283° West 421 484 32,000  Level Cleveland Center
09:28AM 41.1225 -83.3647 282° West 420 483 32,000  Level Cleveland Center
09:29AM 41.1467 -83.5153 282° West 419 482 32,000  Level Cleveland Center
09:30AM 41.1706 -83.6653 282° West 416 479 32,000  Level Cleveland Center
09:31AM 41.1944 -83.8144 282° West 413 475 32,000  Level Cleveland Center
09:32AM 41.2228 -83.9853 282° West 412 474 32,000  Level Cleveland Center
09:33AM 41.2456 -84.1319 282° West 410 472 32,000 -300 Level Cleveland Center
09:34AM 41.2689 -84.2803 282° West 409 471 31,500 -780 Descending Cleveland Center
09:35AM 41.2928 -84.4281 282° West 410 472 30,500 -780 Descending Cleveland Center
09:36AM 41.3100 -84.5744 279° West 402 463 30,000 -300 Descending Cleveland Center
09:37AM 41.3272 -84.7186 279° West 395 455 30,000  Level Cleveland Center
09:38AM 41.3450 -84.8636 279° West 396 456 30,000  Level Cleveland Center
09:39AM 41.3667 -85.0378 279° West 395 455 30,000 -600 Level Cleveland Center
09:40AM 41.3844 -85.1831 279° West 397 457 28,800 -1,620 Descending Cleveland Center
09:42AM 41.4006 -85.3236 279° West 386 444 26,800 -1,980 Descending Cleveland Center
09:43AM 41.4169 -85.4617 279° West 378 435 24,800 -1,980 Descending Cleveland Center
09:44AM 41.4328 -85.5942 279° West 361 415 22,800 -1,860 Descending Cleveland Center
09:45AM 41.4481 -85.7217 279° West 350 403 21,000 -1,800 Descending Cleveland Center
09:46AM 41.4619 -85.8458 279° West 342 394 19,200 -1,620 Descending Cleveland Center
09:47AM 41.4750 -85.9667 278° West 332 382 17,700 -1,740 Descending Cleveland Center
09:48AM 41.4883 -86.0850 279° West 325 374 15,700 -2,100 Descending Cleveland Center
09:48AM 41.4964 -86.1550 279° West 322 371 14,600 -1,920 Descending Chicago Center
09:49AM 41.5086 -86.2675 278° West 307 353 12,800 -1,740 Descending Chicago Center
09:50AM 41.5206 -86.3769 278° West 300 345 11,100 -900 Descending Chicago Center
09:51AM 41.5217 -86.4828 271° West 287 330 11,000 -540 Descending Chicago Center
09:52AM 41.5222 -86.5875 270° West 282 325 10,000 -540 Descending Chicago Center
09:53AM 41.5206 -86.6847 269° West 266 306 10,000  Level Chicago Center
09:54AM 41.5206 -86.7942 270° West 264 304 10,000 -180 Level Chicago Center
09:55AM 41.5192 -86.8872 269° West 254 292 9,700 -840 Descending Chicago Center
09:56AM 41.5183 -86.9781 269° West 247 284 8,300 -1,320 Descending Chicago Center
09:57AM 41.5206 -87.0736 272° West 258 297 7,000 -1,140 Descending Chicago Center
09:58AM 41.5536 -87.1814 292° West 261 300 6,000 -540 Descending Chicago Center
09:59AM 41.5764 -87.2697 289° West 257 296 6,000 -300 Level Chicago Center
10:01AM 41.6022 -87.3583 291° West 257 296 5,400 -840 Descending Chicago Center
10:02AM 41.6247 -87.4467 289° West 256 295 4,400 -720 Descending Chicago Center
10:03AM 41.6475 -87.5308 290° West 248 285 4,000 -480 Descending Chicago Center
10:04AM 41.6814 -87.6067 301° West 211 243 3,500 -780 Descending Chicago Center
10:05AM 41.7158 -87.6561 313° West 196 226 2,500 -900 Descending Chicago Center
10:06AM 41.7436 -87.6953 314° West 172 198 1,700 -720 Descending Chicago Center
10:07AM 41.7658 -87.7247 315° West 138 159 1,100 -420 Descending Chicago Center
10:08AM 41.7881 -87.7564 313° West 134 154 900 -240 Descending Chicago Center